Time;durP1;ratioP1;P1;durP2;ratioP2;P2;SDS_P1;SDS_P2;PMS_P1;PMS_P2;Temp;Humidity;BMP_temperature;BMP_pressure;BME280_temperature;BME280_humidity;BME280_pressure;Samples;Min_cycle;Max_cycle;Signal;HPM_P1;HPM_P2
2023/05/13 00:02:17;;;;;;;9.27;4.57;;;;;;;11.93;62.73;100426.06;5033244;28;20681;-67
2023/05/13 00:04:43;;;;;;;5.35;4.30;;;;;;;11.98;62.55;100423.78;5031957;28;20246;-66
2023/05/13 00:07:08;;;;;;;7.75;4.50;;;;;;;11.99;62.49;100428.94;5032759;28;20045;-64
2023/05/13 00:09:34;;;;;;;4.47;3.80;;;;;;;11.97;62.18;100432.72;5033148;28;20041;-63
2023/05/13 00:11:59;;;;;;;7.05;4.35;;;;;;;11.97;61.74;100432.72;5032903;28;20181;-64
2023/05/13 00:14:25;;;;;;;5.53;4.07;;;;;;;11.96;61.48;100439.03;5033310;28;20057;-63
2023/05/13 00:16:50;;;;;;;5.38;3.70;;;;;;;11.89;62.12;100446.75;5034174;28;20033;-64
2023/05/13 00:19:16;;;;;;;4.30;3.90;;;;;;;11.87;61.66;100445.25;5032029;28;20041;-64
2023/05/13 00:21:41;;;;;;;4.38;3.58;;;;;;;11.86;61.42;100444.41;5033059;28;20060;-67
2023/05/13 00:24:06;;;;;;;3.90;3.45;;;;;;;11.77;61.73;100443.50;5031815;28;20029;-67
2023/05/13 00:26:32;;;;;;;9.90;5.60;;;;;;;11.66;61.69;100443.72;5031643;28;20029;-63
2023/05/13 00:28:57;;;;;;;11.65;5.95;;;;;;;11.81;61.82;100441.38;5031001;28;20045;-67
2023/05/13 00:31:23;;;;;;;6.82;5.55;;;;;;;11.84;62.45;100443.72;5032057;28;20123;-67
2023/05/13 00:33:48;;;;;;;9.30;5.82;;;;;;;11.80;62.29;100435.25;5031384;28;20108;-63
2023/05/13 00:36:14;;;;;;;8.93;5.93;;;;;;;11.86;62.53;100439.09;5033599;28;20041;-63
2023/05/13 00:38:39;;;;;;;9.10;5.07;;;;;;;11.91;62.43;100444.78;5035244;28;20057;-67
2023/05/13 00:41:05;;;;;;;9.10;5.47;;;;;;;11.95;61.40;100440.00;5035595;28;20528;-63
2023/05/13 00:43:31;;;;;;;7.03;5.15;;;;;;;11.94;62.35;100451.59;5034485;28;20044;-67
2023/05/13 00:45:57;;;;;;;8.75;5.18;;;;;;;11.86;63.14;100454.19;5035506;28;20048;-63
2023/05/13 00:48:23;;;;;;;6.53;4.55;;;;;;;11.79;63.34;100449.50;5035909;28;20268;-64
2023/05/13 00:50:49;;;;;;;8.52;4.68;;;;;;;11.77;63.92;100451.47;5035415;28;20033;-66
2023/05/13 00:53:16;;;;;;;6.60;4.50;;;;;;;11.71;64.17;100456.53;5035515;28;20441;-63
2023/05/13 00:55:43;;;;;;;8.73;4.97;;;;;;;11.59;64.33;100453.25;5036110;28;20030;-67
2023/05/13 00:58:08;;;;;;;5.65;4.22;;;;;;;11.69;64.65;100461.97;5034967;28;20041;-67
2023/05/13 01:00:40;;;;;;;6.22;4.53;;;;;;;11.74;64.37;100464.19;5035532;28;20041;-67
2023/05/13 01:03:12;;;;;;;7.63;4.10;;;;;;;11.69;63.93;100467.28;5035653;28;20041;-63
2023/05/13 01:06:26;;;;;;;6.10;4.28;;;;;;;11.68;63.21;100460.31;5036669;28;20033;-67
2023/05/13 01:09:04;;;;;;;5.22;4.07;;;;;;;11.77;63.56;100466.53;5031996;28;20057;-67
2023/05/13 01:11:36;;;;;;;7.13;4.38;;;;;;;11.75;63.60;100471.16;5032349;28;20076;-67
2023/05/13 01:14:08;;;;;;;6.75;4.10;;;;;;;11.81;63.68;100467.91;5036036;28;20037;-67
2023/05/13 01:16:45;;;;;;;4.75;3.70;;;;;;;11.85;62.90;100465.78;5034655;28;20041;-67
2023/05/13 01:19:32;;;;;;;7.95;3.97;;;;;;;11.78;63.59;100465.56;5032777;28;20064;-67
2023/05/13 01:21:57;;;;;;;4.70;3.88;;;;;;;11.78;63.23;100471.72;5034430;28;20048;-67
2023/05/13 01:24:23;;;;;;;6.03;3.95;;;;;;;11.74;63.32;100482.75;5034763;28;20259;-67
2023/05/13 01:26:48;;;;;;;8.20;4.30;;;;;;;11.68;64.08;100480.69;5037167;28;20450;-67
2023/05/13 01:29:14;;;;;;;8.90;5.10;;;;;;;11.70;64.37;100481.38;5034908;28;20041;-67
2023/05/13 01:31:41;;;;;;;4.85;4.03;;;;;;;11.58;64.64;100479.94;5035488;28;20045;-67
2023/05/13 01:34:09;;;;;;;7.03;4.45;;;;;;;11.61;65.01;100472.50;5036034;28;20076;-64
2023/05/13 01:36:36;;;;;;;7.28;4.40;;;;;;;11.51;65.58;100461.13;5034542;28;20021;-67
2023/05/13 01:39:02;;;;;;;7.53;5.07;;;;;;;11.51;65.83;100471.75;5033972;28;20045;-63
2023/05/13 01:41:27;;;;;;;8.30;4.85;;;;;;;11.34;66.14;100444.19;5034115;28;20381;-67
2023/05/13 01:43:53;;;;;;;5.93;4.65;;;;;;;11.51;67.20;100472.59;5034723;28;20083;-67
2023/05/13 01:46:19;;;;;;;7.38;4.65;;;;;;;11.50;67.10;100475.38;5035972;28;20055;-63
2023/05/13 01:48:44;;;;;;;6.05;4.35;;;;;;;11.32;68.18;100474.50;5034670;28;20030;-64
2023/05/13 01:51:10;;;;;;;7.75;4.63;;;;;;;11.15;68.11;100484.91;5033917;28;20091;-67
2023/05/13 01:53:35;;;;;;;8.38;5.63;;;;;;;11.10;67.58;100484.53;5033947;28;20041;-64
2023/05/13 01:56:00;;;;;;;5.75;4.28;;;;;;;11.17;67.04;100475.00;5034179;28;20275;-67
2023/05/13 01:58:26;;;;;;;5.82;4.20;;;;;;;11.17;67.31;100484.78;5033328;28;20041;-64
2023/05/13 02:00:51;;;;;;;7.95;4.57;;;;;;;11.16;67.74;100489.22;5033340;28;20038;-67
2023/05/13 02:03:17;;;;;;;8.15;4.72;;;;;;;11.15;68.61;100492.03;5033752;28;20312;-67
2023/05/13 02:05:43;;;;;;;9.07;5.05;;;;;;;11.18;68.56;100491.75;5033410;28;20040;-67
2023/05/13 02:08:08;;;;;;;5.35;4.50;;;;;;;11.08;68.78;100493.59;5033122;28;20251;-67
2023/05/13 02:10:34;;;;;;;6.32;4.40;;;;;;;11.16;68.28;100494.53;5034607;28;20339;-67
2023/05/13 02:12:59;;;;;;;6.82;4.97;;;;;;;11.23;67.97;100493.94;5034122;28;20040;-67
2023/05/13 02:15:24;;;;;;;7.97;4.40;;;;;;;11.23;68.79;100492.13;5034214;28;20447;-67
2023/05/13 02:17:50;;;;;;;6.03;4.45;;;;;;;11.24;68.33;100495.63;5033810;28;20349;-67
2023/05/13 02:20:15;;;;;;;6.50;4.50;;;;;;;11.19;68.70;100494.25;5033505;28;20025;-67
2023/05/13 02:22:41;;;;;;;8.90;4.40;;;;;;;11.14;68.31;100493.84;5032828;28;20366;-67
2023/05/13 02:25:07;;;;;;;6.35;4.10;;;;;;;11.13;68.24;100492.19;5034206;28;20084;-67
2023/05/13 02:27:32;;;;;;;7.38;4.50;;;;;;;11.15;67.79;100498.16;5029491;28;20052;-67
2023/05/13 02:29:58;;;;;;;7.45;4.78;;;;;;;11.16;68.81;100489.22;5034034;28;20053;-67
2023/05/13 02:32:23;;;;;;;7.00;4.30;;;;;;;11.05;68.32;100480.66;5034111;28;20054;-67
2023/05/13 02:34:49;;;;;;;11.68;6.07;;;;;;;10.77;69.48;100485.09;5034341;28;20026;-67
2023/05/13 02:37:14;;;;;;;6.40;5.15;;;;;;;10.73;71.30;100473.94;5034058;28;20041;-67
2023/05/13 02:39:40;;;;;;;8.73;6.03;;;;;;;10.65;72.28;100475.66;5033763;28;20037;-68
2023/05/13 02:42:05;;;;;;;8.90;6.63;;;;;;;10.73;71.41;100479.25;5032577;28;20042;-67
2023/05/13 02:44:30;;;;;;;8.50;6.32;;;;;;;10.71;71.43;100483.84;5032834;28;20029;-63
2023/05/13 02:46:56;;;;;;;8.00;6.22;;;;;;;10.67;70.58;100476.34;5033782;28;20063;-67
2023/05/13 02:49:21;;;;;;;6.70;5.05;;;;;;;10.38;71.60;100485.19;5033028;28;20037;-62
2023/05/13 02:51:47;;;;;;;7.05;5.32;;;;;;;10.42;72.10;100488.41;5035306;28;20059;-67
2023/05/13 02:54:12;;;;;;;7.47;5.20;;;;;;;10.40;72.36;100485.91;5037480;28;20040;-67
2023/05/13 02:56:38;;;;;;;8.05;6.00;;;;;;;10.48;72.12;100495.78;5034646;28;20214;-67
2023/05/13 02:59:03;;;;;;;9.13;5.35;;;;;;;10.55;72.43;100495.06;5028843;28;20351;-64
2023/05/13 03:01:28;;;;;;;7.18;5.32;;;;;;;10.63;72.19;100506.75;5032202;28;20055;-67
2023/05/13 03:03:54;;;;;;;9.43;5.57;;;;;;;10.66;72.03;100503.81;5033199;28;20037;-67
2023/05/13 03:06:19;;;;;;;7.10;4.88;;;;;;;10.60;72.52;100496.44;5032992;28;20288;-67
2023/05/13 03:08:45;;;;;;;7.55;5.15;;;;;;;10.53;72.49;100515.56;5033026;28;20037;-67
2023/05/13 03:11:10;;;;;;;6.93;4.97;;;;;;;10.65;72.11;100515.38;5035684;28;20406;-67
2023/05/13 03:13:36;;;;;;;8.52;5.22;;;;;;;10.71;72.37;100517.47;5036438;28;20063;-67
2023/05/13 03:16:01;;;;;;;7.18;5.40;;;;;;;10.73;71.42;100511.03;5033536;28;20041;-67
2023/05/13 03:18:30;;;;;;;7.90;5.20;;;;;;;10.83;71.65;100518.94;5033328;28;20158;-67
2023/05/13 03:20:55;;;;;;;5.97;4.55;;;;;;;10.88;71.07;100522.00;5033105;28;20099;-67
2023/05/13 03:23:21;;;;;;;6.78;4.95;;;;;;;10.90;72.50;100530.63;5033605;28;20049;-67
2023/05/13 03:25:46;;;;;;;8.25;4.80;;;;;;;10.84;71.73;100528.56;5033766;28;20045;-67
2023/05/13 03:28:12;;;;;;;7.10;5.30;;;;;;;10.85;72.03;100539.03;5033022;28;20037;-67
2023/05/13 03:30:37;;;;;;;7.00;5.10;;;;;;;10.87;73.17;100530.94;5033125;28;20072;-67
2023/05/13 03:33:02;;;;;;;7.03;5.47;;;;;;;10.90;73.07;100537.75;5033053;28;20044;-67
2023/05/13 03:35:28;;;;;;;9.55;5.72;;;;;;;10.88;73.82;100540.56;5032784;28;20052;-67
2023/05/13 03:37:53;;;;;;;9.05;5.60;;;;;;;10.83;74.81;100534.84;5033259;28;20041;-67
2023/05/13 03:40:19;;;;;;;6.43;5.00;;;;;;;10.75;74.65;100535.56;5035689;28;20153;-67
2023/05/13 03:42:44;;;;;;;9.95;5.65;;;;;;;10.78;75.70;100542.38;5035026;28;20049;-67
2023/05/13 03:45:10;;;;;;;6.63;5.43;;;;;;;10.67;75.70;100542.56;5036880;28;20473;-67
2023/05/13 03:47:38;;;;;;;8.98;5.35;;;;;;;10.59;76.88;100542.44;5036129;28;20095;-67
2023/05/13 03:50:04;;;;;;;6.35;5.18;;;;;;;10.67;76.92;100545.22;5034311;28;20065;-67
2023/05/13 03:52:29;;;;;;;6.15;4.65;;;;;;;10.59;78.73;100545.09;5033554;28;20374;-67
2023/05/13 03:54:55;;;;;;;7.10;5.10;;;;;;;10.51;79.60;100548.44;5032673;28;20107;-67
2023/05/13 03:57:20;;;;;;;7.15;5.05;;;;;;;10.55;80.48;100545.38;5033799;28;20044;-67
2023/05/13 03:59:46;;;;;;;6.45;5.15;;;;;;;10.49;82.45;100543.28;5032783;28;20037;-67
2023/05/13 04:02:11;;;;;;;9.23;5.93;;;;;;;10.55;81.85;100552.47;5032646;28;20049;-67
2023/05/13 04:04:36;;;;;;;10.52;6.15;;;;;;;10.70;79.97;100547.56;5033293;28;20175;-67
2023/05/13 04:07:02;;;;;;;9.88;6.22;;;;;;;10.82;78.10;100549.06;5032766;28;20045;-67
2023/05/13 04:09:27;;;;;;;8.30;6.07;;;;;;;10.87;78.63;100546.81;5034746;28;20087;-67
2023/05/13 04:11:53;;;;;;;8.60;5.82;;;;;;;10.80;80.56;100540.44;5034952;28;20044;-68
2023/05/13 04:14:18;;;;;;;7.07;6.03;;;;;;;10.76;79.43;100537.25;5038161;28;20350;-67
2023/05/13 04:16:44;;;;;;;9.43;6.07;;;;;;;10.73;81.42;100534.88;5037627;28;20311;-67
2023/05/13 04:19:09;;;;;;;9.25;6.50;;;;;;;10.66;81.04;100533.78;5036897;28;20044;-67
2023/05/13 04:21:34;;;;;;;9.95;6.50;;;;;;;10.59;80.39;100537.97;5037167;28;20343;-67
2023/05/13 04:24:00;;;;;;;9.05;6.32;;;;;;;10.25;80.38;100540.22;5035640;28;20393;-67
2023/05/13 04:26:25;;;;;;;9.10;6.15;;;;;;;10.33;80.92;100542.16;5036979;28;20366;-67
2023/05/13 04:28:51;;;;;;;9.52;7.05;;;;;;;10.47;83.06;100542.59;5036395;28;20270;-67
2023/05/13 04:31:17;;;;;;;8.93;6.30;;;;;;;10.63;83.48;100543.81;5036589;28;20033;-67
2023/05/13 04:33:44;;;;;;;8.02;6.18;;;;;;;10.76;85.38;100547.00;5035560;28;20055;-67
2023/05/13 04:36:09;;;;;;;10.70;5.50;;;;;;;11.03;87.29;100559.47;5037780;28;20046;-67
2023/05/13 04:38:35;;;;;;;7.25;5.35;;;;;;;11.17;82.47;100561.63;5036081;28;20246;-67
2023/05/13 04:41:00;;;;;;;6.60;5.78;;;;;;;11.05;81.17;100558.34;5036899;28;20068;-67
2023/05/13 04:43:26;;;;;;;8.73;5.22;;;;;;;11.19;81.24;100576.41;5036848;28;20075;-67
2023/05/13 04:45:51;;;;;;;7.82;4.72;;;;;;;10.98;81.94;100581.09;5035285;28;20128;-67
2023/05/13 04:48:17;;;;;;;8.13;5.53;;;;;;;11.11;82.07;100583.44;5038021;28;20033;-67
2023/05/13 04:50:46;;;;;;;7.93;5.25;;;;;;;11.18;81.58;100582.69;5039142;28;20037;-67
2023/05/13 04:53:12;;;;;;;6.85;5.28;;;;;;;11.45;80.27;100584.56;5035176;28;20352;-67
2023/05/13 04:55:37;;;;;;;4.93;4.53;;;;;;;11.69;77.34;100591.13;5036861;28;20037;-67
2023/05/13 04:58:03;;;;;;;7.82;4.95;;;;;;;11.92;75.95;100600.38;5039559;28;20220;-67
2023/05/13 05:00:28;;;;;;;7.95;5.28;;;;;;;12.22;74.95;100601.00;5037844;28;20266;-67
2023/05/13 05:02:55;;;;;;;8.18;5.40;;;;;;;12.15;74.57;100601.59;5036176;28;20238;-67
2023/05/13 05:05:20;;;;;;;5.78;4.93;;;;;;;12.04;75.65;100601.00;5035310;28;20049;-67
2023/05/13 05:07:46;;;;;;;6.13;4.72;;;;;;;12.30;75.33;100595.78;5035189;28;20042;-67
2023/05/13 05:10:12;;;;;;;6.85;5.60;;;;;;;12.54;74.29;100597.81;5035867;28;20111;-67
2023/05/13 05:12:37;;;;;;;7.30;5.80;;;;;;;12.60;75.03;100592.72;5036750;28;20033;-67
2023/05/13 05:15:04;;;;;;;12.30;8.88;;;;;;;12.88;73.37;100598.75;5035694;28;20267;-67
2023/05/13 05:17:31;;;;;;;10.98;8.20;;;;;;;13.27;71.94;100603.66;5034134;28;20049;-67
2023/05/13 05:19:58;;;;;;;11.63;8.60;;;;;;;13.35;71.46;100604.53;5034510;28;20354;-67
2023/05/13 05:22:25;;;;;;;11.10;8.52;;;;;;;13.44;70.53;100602.75;5034915;28;20112;-67
2023/05/13 05:24:51;;;;;;;9.93;6.82;;;;;;;13.45;70.72;100607.06;5035786;28;20068;-68
2023/05/13 05:27:17;;;;;;;6.53;5.90;;;;;;;13.49;69.30;100603.09;5034401;28;20223;-67
2023/05/13 05:29:42;;;;;;;8.30;6.65;;;;;;;13.04;71.35;100609.47;5036088;28;20092;-67
2023/05/13 05:32:08;;;;;;;9.23;6.47;;;;;;;13.43;70.75;100617.88;5035583;28;20039;-64
2023/05/13 05:34:33;;;;;;;8.70;6.47;;;;;;;13.74;69.97;100614.69;5035675;28;20044;-67
2023/05/13 05:36:58;;;;;;;9.80;5.85;;;;;;;13.93;67.58;100626.91;5035101;28;20041;-64
2023/05/13 05:39:24;;;;;;;8.88;5.45;;;;;;;14.33;66.59;100626.16;5034606;28;20033;-67
2023/05/13 05:41:49;;;;;;;7.63;5.45;;;;;;;14.32;66.31;100621.81;5032759;28;20034;-65
2023/05/13 05:44:15;;;;;;;8.38;5.35;;;;;;;14.34;64.26;100620.66;5033957;28;20419;-64
2023/05/13 05:46:40;;;;;;;7.85;5.13;;;;;;;14.16;64.57;100619.13;5034178;28;20033;-64
2023/05/13 05:49:07;;;;;;;7.60;4.97;;;;;;;13.98;63.72;100609.44;5034168;28;20067;-67
2023/05/13 05:51:32;;;;;;;7.70;5.22;;;;;;;14.10;64.16;100601.97;5034675;28;20104;-67
2023/05/13 05:53:58;;;;;;;6.85;5.63;;;;;;;14.23;63.56;100598.81;5035246;28;20109;-67
2023/05/13 05:56:23;;;;;;;9.15;5.45;;;;;;;14.66;63.00;100598.56;5038986;28;20036;-67
2023/05/13 05:58:48;;;;;;;9.02;5.45;;;;;;;14.97;63.03;100589.84;5039399;28;20083;-64
2023/05/13 06:01:14;;;;;;;7.15;5.15;;;;;;;15.19;61.96;100597.13;5038176;28;20332;-65
2023/05/13 06:03:39;;;;;;;6.30;4.93;;;;;;;15.50;62.61;100597.19;5038788;28;20126;-64
2023/05/13 06:06:05;;;;;;;7.20;4.72;;;;;;;15.73;59.60;100607.16;5038426;28;20048;-67
2023/05/13 06:08:31;;;;;;;9.40;5.25;;;;;;;15.83;58.98;100603.28;5037640;28;20409;-67
2023/05/13 06:10:57;;;;;;;5.88;4.05;;;;;;;15.65;61.08;100602.69;5038742;28;20220;-67
2023/05/13 06:13:22;;;;;;;8.57;4.95;;;;;;;15.76;59.93;100610.31;5039641;28;20159;-67
2023/05/13 06:15:48;;;;;;;5.47;4.15;;;;;;;15.59;59.12;100606.88;5038365;28;20104;-67
2023/05/13 06:18:13;;;;;;;6.30;4.50;;;;;;;15.23;60.77;100605.63;5038542;28;20041;-67
2023/05/13 06:20:39;;;;;;;7.05;4.40;;;;;;;15.80;59.74;100600.13;5038650;28;20064;-67
2023/05/13 06:23:05;;;;;;;7.97;4.78;;;;;;;16.13;60.21;100616.78;5039433;28;20420;-64
2023/05/13 06:25:31;;;;;;;5.30;4.30;;;;;;;16.35;58.81;100621.31;5039591;28;20047;-65
2023/05/13 06:27:56;;;;;;;7.63;4.32;;;;;;;16.59;57.61;100617.63;5039329;28;20079;-67
2023/05/13 06:30:22;;;;;;;6.97;3.95;;;;;;;16.56;56.48;100615.31;5038603;28;20041;-67
2023/05/13 06:32:47;;;;;;;6.68;4.28;;;;;;;16.72;56.00;100612.56;5038567;28;20088;-65
2023/05/13 06:35:13;;;;;;;6.63;4.32;;;;;;;16.73;57.54;100613.38;5038603;28;20138;-64
2023/05/13 06:37:39;;;;;;;5.78;4.20;;;;;;;16.37;56.85;100605.09;5038237;28;20031;-67
2023/05/13 06:40:05;;;;;;;4.82;4.38;;;;;;;16.42;57.56;100606.22;5038919;28;20346;-67
2023/05/13 06:42:31;;;;;;;8.73;4.53;;;;;;;16.70;55.38;100605.72;5038182;28;20033;-67
2023/05/13 06:44:56;;;;;;;5.13;4.10;;;;;;;17.07;53.73;100602.19;5039334;28;20029;-68
2023/05/13 06:47:22;;;;;;;6.45;4.38;;;;;;;17.40;52.74;100603.50;5038471;28;20041;-65
2023/05/13 06:49:47;;;;;;;5.00;3.88;;;;;;;17.15;52.47;100605.59;5038604;28;20049;-64
2023/05/13 06:52:13;;;;;;;7.15;4.07;;;;;;;17.14;51.43;100598.59;5038298;28;20026;-67
2023/05/13 06:54:39;;;;;;;6.53;3.70;;;;;;;17.34;52.48;100600.72;5038151;28;20076;-68
2023/05/13 06:57:06;;;;;;;6.32;3.75;;;;;;;16.96;52.84;100590.09;5037561;28;20339;-64
2023/05/13 06:59:31;;;;;;;4.15;3.40;;;;;;;17.50;50.92;100595.16;5037766;28;20061;-65
2023/05/13 07:01:57;;;;;;;4.38;3.53;;;;;;;17.75;49.99;100604.63;5037572;28;20087;-64
2023/05/13 07:04:22;;;;;;;7.80;4.03;;;;;;;17.84;50.10;100603.50;5038031;28;20057;-64
2023/05/13 07:06:49;;;;;;;5.00;3.83;;;;;;;17.67;52.15;100611.91;5038638;28;20033;-65
2023/05/13 07:09:14;;;;;;;5.65;3.53;;;;;;;17.88;51.02;100603.09;5038557;28;20049;-65
2023/05/13 07:11:40;;;;;;;4.18;3.28;;;;;;;18.18;50.43;100618.09;5037982;28;20083;-65
2023/05/13 07:14:05;;;;;;;4.90;3.63;;;;;;;17.71;50.80;100619.41;5038398;28;20036;-63
2023/05/13 07:16:31;;;;;;;4.15;3.75;;;;;;;17.45;53.55;100609.13;5037995;28;20034;-64
2023/05/13 07:18:58;;;;;;;5.28;3.38;;;;;;;17.52;51.72;100606.53;5037816;28;20370;-64
2023/05/13 07:21:23;;;;;;;5.70;3.72;;;;;;;17.65;51.71;100600.50;5037948;28;20037;-64
2023/05/13 07:23:49;;;;;;;4.00;3.40;;;;;;;18.14;50.53;100595.34;5037722;28;20436;-67
2023/05/13 07:26:14;;;;;;;5.47;3.10;;;;;;;17.74;49.68;100602.94;5037592;28;20271;-67
2023/05/13 07:28:40;;;;;;;4.22;2.88;;;;;;;17.33;49.28;100596.38;5037309;28;20038;-64
2023/05/13 07:31:06;;;;;;;4.85;2.88;;;;;;;17.55;50.21;100603.47;5037157;28;20051;-68
2023/05/13 07:33:31;;;;;;;3.63;2.72;;;;;;;17.64;48.79;100596.16;5038031;28;20044;-67
2023/05/13 07:35:57;;;;;;;6.78;3.53;;;;;;;18.04;48.67;100594.84;5037824;28;20040;-64
2023/05/13 07:38:23;;;;;;;4.03;2.83;;;;;;;18.22;48.16;100599.78;5037999;28;20041;-66
2023/05/13 07:40:48;;;;;;;5.70;3.50;;;;;;;17.81;50.31;100587.78;5037457;28;20080;-68
2023/05/13 07:43:16;;;;;;;4.82;3.50;;;;;;;18.06;49.63;100582.91;5038315;28;20041;-66
2023/05/13 07:45:42;;;;;;;5.00;3.42;;;;;;;17.93;49.54;100577.41;5037126;28;20037;-64
2023/05/13 07:48:08;;;;;;;4.53;2.80;;;;;;;17.95;49.01;100582.56;5038526;28;20099;-69
2023/05/13 07:50:34;;;;;;;4.50;2.97;;;;;;;18.06;48.78;100574.03;5037865;28;20037;-64
2023/05/13 07:53:01;;;;;;;4.22;2.55;;;;;;;18.37;47.50;100579.09;5037940;28;20068;-67
2023/05/13 07:55:27;;;;;;;6.35;2.83;;;;;;;18.71;45.84;100578.38;5037590;28;20071;-65
2023/05/13 07:57:52;;;;;;;5.45;2.80;;;;;;;18.62;47.81;100574.16;5037843;28;20065;-67
2023/05/13 08:00:18;;;;;;;2.78;2.28;;;;;;;19.07;45.40;100559.44;5036788;28;20037;-65
2023/05/13 08:02:44;;;;;;;4.88;2.85;;;;;;;18.55;45.70;100566.03;5037668;28;20057;-67
2023/05/13 08:05:10;;;;;;;3.95;2.58;;;;;;;17.89;43.75;100559.22;5036043;28;20376;-67
2023/05/13 08:07:35;;;;;;;3.67;3.05;;;;;;;18.12;43.94;100533.91;5036868;28;20068;-64
2023/05/13 08:10:01;;;;;;;6.57;3.60;;;;;;;18.50;45.72;100565.78;5036648;28;20045;-64
2023/05/13 08:12:26;;;;;;;6.82;3.22;;;;;;;18.23;47.80;100563.91;5037534;28;20423;-64
2023/05/13 08:14:52;;;;;;;3.92;2.95;;;;;;;18.02;44.91;100560.19;5036339;28;20040;-65
2023/05/13 08:17:18;;;;;;;3.83;2.75;;;;;;;18.16;46.22;100570.03;5037905;28;20053;-64
2023/05/13 08:19:45;;;;;;;4.13;2.90;;;;;;;18.15;44.51;100570.22;5037338;28;20335;-64
2023/05/13 08:22:11;;;;;;;4.70;3.53;;;;;;;18.27;46.13;100573.22;5037691;28;20044;-63
2023/05/13 08:24:39;;;;;;;2.78;2.58;;;;;;;18.58;44.94;100578.22;5037602;28;20038;-64
2023/05/13 08:27:04;;;;;;;3.85;2.75;;;;;;;18.74;45.36;100572.66;5037968;28;20064;-65
2023/05/13 08:29:30;;;;;;;4.15;2.30;;;;;;;18.92;42.57;100566.78;5037020;28;20327;-68
2023/05/13 08:31:55;;;;;;;2.35;2.15;;;;;;;19.07;41.88;100571.00;5037679;28;20029;-67
2023/05/13 08:34:21;;;;;;;2.88;1.83;;;;;;;18.34;40.73;100566.06;5036576;28;20037;-68
2023/05/13 08:36:46;;;;;;;4.03;2.28;;;;;;;18.24;43.60;100571.75;5036737;28;20102;-68
2023/05/13 08:39:12;;;;;;;6.28;3.10;;;;;;;18.72;42.83;100569.28;5036847;28;20096;-64
2023/05/13 08:41:40;;;;;;;4.28;2.13;;;;;;;19.08;41.75;100564.63;5036499;28;20037;-68
2023/05/13 08:44:06;;;;;;;3.65;2.22;;;;;;;18.82;42.54;100567.13;5036341;28;20037;-64
2023/05/13 08:46:33;;;;;;;2.95;2.60;;;;;;;19.02;41.49;100560.03;5036909;28;20029;-68
2023/05/13 08:49:00;;;;;;;4.95;2.40;;;;;;;19.38;41.85;100557.13;5037144;28;20389;-65
2023/05/13 08:51:26;;;;;;;2.65;1.50;;;;;;;18.87;37.88;100569.22;5036417;28;20026;-68
2023/05/13 08:53:53;;;;;;;2.22;1.90;;;;;;;19.09;41.99;100563.59;5017727;28;20034;-67
2023/05/13 08:56:21;;;;;;;3.13;1.77;;;;;;;19.05;37.10;100556.13;5015840;28;20042;-64
2023/05/13 08:58:47;;;;;;;4.68;1.98;;;;;;;19.07;37.46;100549.53;5017703;28;20036;-67
2023/05/13 09:01:13;;;;;;;2.65;2.13;;;;;;;18.62;40.02;100553.53;5020386;28;20109;-64
2023/05/13 09:03:51;;;;;;;3.83;2.47;;;;;;;18.16;40.78;100561.97;5019941;28;20366;-67
2023/05/13 09:06:17;;;;;;;3.42;2.25;;;;;;;17.80;40.44;100553.97;5023264;28;20100;-68
2023/05/13 09:08:43;;;;;;;4.57;1.70;;;;;;;17.85;38.10;100548.88;5020341;28;20049;-68
2023/05/13 09:11:09;;;;;;;2.92;1.55;;;;;;;18.32;37.58;100543.97;5019756;28;20046;-68
2023/05/13 09:13:34;;;;;;;2.58;2.03;;;;;;;18.62;37.68;100541.97;5021004;28;20139;-68
2023/05/13 09:16:01;;;;;;;3.10;1.92;;;;;;;18.98;43.35;100545.34;5019692;28;20030;-68
2023/05/13 09:18:31;;;;;;;3.25;2.35;;;;;;;18.76;41.86;100543.78;5019291;28;20045;-68
2023/05/13 09:20:56;;;;;;;4.38;2.60;;;;;;;18.63;39.55;100541.78;5019434;28;20037;-65
2023/05/13 09:23:22;;;;;;;5.13;1.98;;;;;;;18.53;40.79;100543.94;5019028;28;20224;-68
2023/05/13 09:25:48;;;;;;;3.80;1.52;;;;;;;18.41;39.14;100548.19;5018482;28;20036;-67
2023/05/13 09:28:14;;;;;;;2.50;1.20;;;;;;;18.02;37.76;100532.56;5020759;28;20042;-64
2023/05/13 09:30:40;;;;;;;1.65;1.30;;;;;;;18.03;36.45;100539.59;5019257;28;20755;-64
2023/05/13 09:33:11;;;;;;;1.55;1.27;;;;;;;17.83;34.93;100545.56;5020015;28;20033;-64
2023/05/13 09:35:57;;;;;;;2.63;1.52;;;;;;;18.19;35.04;100545.50;5017863;28;20386;-64
2023/05/13 09:38:33;;;;;;;2.58;1.50;;;;;;;18.20;35.28;100535.63;5018710;28;20049;-65
2023/05/13 09:41:00;;;;;;;2.83;1.60;;;;;;;18.39;36.46;100528.78;5023242;28;20353;-65
2023/05/13 09:43:30;;;;;;;3.35;1.58;;;;;;;18.46;37.33;100535.03;5019813;28;20045;-68
2023/05/13 09:45:59;;;;;;;1.45;1.35;;;;;;;18.23;37.56;100543.28;5019230;28;20034;-64
2023/05/13 09:48:27;;;;;;;3.33;1.73;;;;;;;18.34;36.17;100537.41;5018132;28;20053;-64
2023/05/13 09:50:54;;;;;;;1.90;1.70;;;;;;;18.51;36.35;100533.41;5019284;28;20041;-64
2023/05/13 09:53:20;;;;;;;2.30;1.45;;;;;;;18.63;36.78;100536.44;5020102;28;20099;-68
2023/05/13 09:55:52;;;;;;;2.53;1.40;;;;;;;18.81;36.32;100531.41;5019289;28;20041;-67
2023/05/13 09:58:21;;;;;;;2.35;1.50;;;;;;;18.80;34.85;100539.66;5018362;28;20037;-65
2023/05/13 10:00:47;;;;;;;1.63;1.33;;;;;;;18.42;37.37;100539.13;5018730;28;20056;-67
2023/05/13 10:03:13;;;;;;;2.25;1.50;;;;;;;18.18;40.34;100532.31;5019867;28;20052;-64
2023/05/13 10:05:40;;;;;;;3.05;1.50;;;;;;;18.24;37.03;100528.84;5018973;28;20025;-64
2023/05/13 10:08:11;;;;;;;3.38;1.60;;;;;;;18.39;37.83;100526.09;5019151;28;20041;-64
2023/05/13 10:10:37;;;;;;;2.95;1.75;;;;;;;18.56;37.31;100526.63;5017721;28;20351;-64
2023/05/13 10:13:24;;;;;;;2.33;2.00;;;;;;;18.36;36.96;100524.63;5020845;28;20034;-64
2023/05/13 10:15:51;;;;;;;2.65;1.40;;;;;;;18.38;37.80;100522.59;5022930;28;20359;-65
2023/05/13 10:18:18;;;;;;;2.08;1.50;;;;;;;18.31;39.04;100520.88;5019286;28;21002;-65
2023/05/13 10:20:44;;;;;;;1.88;1.52;;;;;;;18.14;38.96;100515.78;5019753;28;20036;-64
2023/05/13 10:23:10;;;;;;;2.15;1.60;;;;;;;18.09;38.28;100502.13;5017633;28;20244;-64
2023/05/13 10:25:37;;;;;;;3.38;1.50;;;;;;;18.34;37.30;100518.63;5018434;28;20071;-64
2023/05/13 10:28:03;;;;;;;2.30;1.60;;;;;;;18.46;37.13;100506.34;5018835;28;20041;-64
2023/05/13 10:30:31;;;;;;;2.78;1.50;;;;;;;18.61;37.89;100498.25;5016804;28;20079;-64
2023/05/13 10:32:58;;;;;;;2.63;1.70;;;;;;;18.54;37.97;100497.34;5020409;28;20029;-68
2023/05/13 10:35:30;;;;;;;4.60;1.80;;;;;;;18.58;37.66;100495.91;5018982;28;20025;-64
2023/05/13 10:38:07;;;;;;;2.25;1.38;;;;;;;18.36;38.61;100511.22;5019674;28;20030;-64
2023/05/13 10:40:35;;;;;;;2.17;1.60;;;;;;;18.47;37.80;100497.28;5017406;28;20061;-64
2023/05/13 10:43:13;;;;;;;2.65;2.00;;;;;;;18.70;36.68;100494.38;5019152;28;20427;-68
2023/05/13 10:45:49;;;;;;;2.60;1.90;;;;;;;18.84;36.83;100475.72;5018104;28;20080;-68
2023/05/13 10:48:16;;;;;;;3.65;1.80;;;;;;;19.03;37.60;100478.50;5017672;28;20052;-64
2023/05/13 10:51:06;;;;;;;2.58;1.73;;;;;;;18.97;36.57;100479.28;5018214;28;20033;-64
2023/05/13 10:53:37;;;;;;;2.75;1.85;;;;;;;18.97;37.25;100486.50;5017993;28;20048;-68
2023/05/13 10:56:06;;;;;;;4.35;1.60;;;;;;;18.96;39.31;100477.63;5019106;28;20390;-64
2023/05/13 10:58:36;;;;;;;2.85;2.00;;;;;;;18.86;38.93;100474.47;5017485;28;20113;-68
2023/05/13 11:01:16;;;;;;;2.47;1.70;;;;;;;18.72;38.57;100480.75;5018708;28;20034;-64
2023/05/13 11:03:53;;;;;;;2.10;1.50;;;;;;;18.72;39.33;100468.19;5016960;28;20044;-65
2023/05/13 11:06:22;;;;;;;5.88;2.25;;;;;;;18.69;38.91;100476.63;5017822;28;20034;-68
2023/05/13 11:08:49;;;;;;;1.60;1.50;;;;;;;18.55;39.09;100469.47;5017253;28;20571;-68
2023/05/13 11:11:21;;;;;;;2.47;1.83;;;;;;;18.61;39.89;100479.47;5017015;28;20026;-68
2023/05/13 11:14:07;;;;;;;1.90;1.70;;;;;;;18.69;41.22;100465.91;5020929;28;20041;-68
2023/05/13 11:16:33;;;;;;;3.72;1.88;;;;;;;18.60;40.05;100461.69;5016585;28;20104;-68
2023/05/13 11:19:01;;;;;;;3.17;1.65;;;;;;;18.68;38.91;100469.59;5017776;28;20057;-68
2023/05/13 11:21:32;;;;;;;2.45;1.67;;;;;;;18.78;39.94;100467.44;5016790;28;20044;-68
2023/05/13 11:24:05;;;;;;;1.98;1.70;;;;;;;18.98;40.35;100467.53;5017336;28;20354;-68